Dripping Springs' Hourly Summary for Sunday, April 16, 2017
Hour Temp
(f)
RH
(%)
Solar Rad.
(MJ/m2)
Rainfall
(in)
Wind
(mph)
4/16/2017 12:00 AM 69 99 0 0 6.53
4/16/2017 1:00 AM 68 99 0 0 6.94
4/16/2017 2:00 AM 68 99 0 0 6.22
4/16/2017 3:00 AM 68 100 0 0 5.42
4/16/2017 4:00 AM 67 100 0 0 4.24
4/16/2017 5:00 AM 67 100 0 0 4.34
4/16/2017 6:00 AM 66 100 0 0 4.5
4/16/2017 7:00 AM 66 100 0 0 3.95
4/16/2017 8:00 AM 66 100 0.15 0 3.67
4/16/2017 9:00 AM 67 100 0.51 0 5.87
4/16/2017 10:00 AM 69 100 0.53 0 6.47
4/16/2017 11:00 AM 71 99 0.88 0 7.67
4/16/2017 12:00 PM 71 99 0.89 0 7.33
4/16/2017 1:00 PM 73 88 1.32 0 6.19
4/16/2017 2:00 PM 75 77 1.59 0 5.44
4/16/2017 3:00 PM 76 73 1.67 0 6.76
4/16/2017 4:00 PM 77 73 1.86 0 7.34
4/16/2017 5:00 PM 78 70 1.3 0 7.28
4/16/2017 6:00 PM 78 67 0.73 0 5.93
4/16/2017 7:00 PM 78 70 0.84 0 5.22
4/16/2017 8:00 PM 76 73 0.18 0 6.33
4/16/2017 9:00 PM 73 83 0 0 5.51
4/16/2017 10:00 PM 71 96 0 0 4.8
4/16/2017 11:00 PM 70 99 0 0 4.96
Data Summary 71 90 12.45 0.00 5.79